createdAt,value
2022-11-03T00:00:04.923Z,86.44
2022-11-03T00:01:03.746Z,86.65
2022-11-03T00:02:03.885Z,86.55
2022-11-03T00:03:04.090Z,86.59
2022-11-03T00:04:03.691Z,86.69
2022-11-03T00:05:03.678Z,86.59
2022-11-03T00:06:03.734Z,86.49
2022-11-03T00:07:03.650Z,86.65
2022-11-03T00:08:03.682Z,86.44
2022-11-03T00:09:03.704Z,86.69
2022-11-03T00:10:03.674Z,86.49
2022-11-03T00:11:03.687Z,87.31
2022-11-03T00:12:03.617Z,87.83
2022-11-03T00:13:03.977Z,87.73
2022-11-03T00:14:03.614Z,87.89
2022-11-03T00:15:03.572Z,87.73
2022-11-03T00:16:03.572Z,86.79
2022-11-03T00:17:03.559Z,87.31
2022-11-03T00:18:03.556Z,86.79
2022-11-03T00:19:03.550Z,86.69
2022-11-03T00:20:03.540Z,86.59
2022-11-03T00:21:03.539Z,86.79
2022-11-03T00:22:03.528Z,86.59
2022-11-03T00:23:03.834Z,86.69
2022-11-03T00:24:03.488Z,86.69
2022-11-03T00:25:03.478Z,86.59
2022-11-03T00:26:03.479Z,86.69
2022-11-03T00:27:03.480Z,86.38
2022-11-03T00:29:04.466Z,87.35
2022-11-03T00:30:03.419Z,87.87
2022-11-03T00:31:03.424Z,88.07
2022-11-03T00:32:03.421Z,88.07
2022-11-03T00:33:03.594Z,87.66
2022-11-03T00:34:03.412Z,87.76
2022-11-03T00:35:03.383Z,87.97
2022-11-03T00:36:03.387Z,87.66
2022-11-03T00:37:03.406Z,87.25
2022-11-03T00:38:03.408Z,87.76
2022-11-03T00:39:03.369Z,87.66
2022-11-03T00:40:03.348Z,87.56
2022-11-03T00:41:03.324Z,87.66
2022-11-03T00:42:03.327Z,88.07
2022-11-03T00:43:03.701Z,87.97
2022-11-03T00:44:03.300Z,87.87
2022-11-03T00:45:03.301Z,87.25
2022-11-03T00:46:03.275Z,87.66
2022-11-03T00:47:03.353Z,87.52
2022-11-03T00:48:03.255Z,86.52
2022-11-03T00:49:03.242Z,86.73
2022-11-03T00:50:03.233Z,86.73
2022-11-03T00:51:03.229Z,86.69
2022-11-03T00:52:03.268Z,86.79
2022-11-03T00:53:03.478Z,86.79
2022-11-03T00:54:03.193Z,86.59
2022-11-03T00:55:03.187Z,86.59
2022-11-03T00:56:03.170Z,86.69
2022-11-03T00:57:03.192Z,86.69
2022-11-03T00:58:03.158Z,86.69
2022-11-03T00:59:03.152Z,86.59
2022-11-03T01:00:03.151Z,86.38
2022-11-03T01:01:03.265Z,86.38
2022-11-03T01:02:03.257Z,86.38
2022-11-03T01:03:03.367Z,86.07
2022-11-03T01:04:03.134Z,86.38
2022-11-03T01:05:03.092Z,86.38
2022-11-03T01:06:03.084Z,86.18
2022-11-03T01:07:03.090Z,86.18
2022-11-03T01:08:03.078Z,85.35
2022-11-03T01:09:03.082Z,85.66
2022-11-03T01:10:03.043Z,84.63
2022-11-03T01:11:03.047Z,85.14
2022-11-03T01:12:03.038Z,85.08
2022-11-03T01:13:03.162Z,84.87
2022-11-03T01:14:03.001Z,85.60
2022-11-03T01:15:04.033Z,86.01
2022-11-03T01:16:02.993Z,86.21
2022-11-03T01:17:02.983Z,86.42
2022-11-03T01:18:03.021Z,86.42
2022-11-03T01:19:02.967Z,86.42
2022-11-03T01:20:02.962Z,86.32
2022-11-03T01:21:02.934Z,86.42
2022-11-03T01:22:06.411Z,86.52
2022-11-03T01:23:03.101Z,86.52
2022-11-03T01:24:02.908Z,86.32
2022-11-03T01:25:02.919Z,86.63
2022-11-03T01:26:02.890Z,86.73
2022-11-03T01:27:02.890Z,86.94
2022-11-03T01:28:05.855Z,86.83
2022-11-03T01:29:02.903Z,86.49
2022-11-03T01:30:02.876Z,86.79
2022-11-03T01:31:02.836Z,86.49
2022-11-03T01:32:02.844Z,86.28
2022-11-03T01:33:02.943Z,85.91
2022-11-03T01:34:02.810Z,85.70
2022-11-03T01:35:02.799Z,86.01
2022-11-03T01:36:02.786Z,86.21
2022-11-03T01:37:02.762Z,85.70
2022-11-03T01:38:02.807Z,85.94
2022-11-03T01:39:03.751Z,86.05
2022-11-03T01:40:02.750Z,85.22
2022-11-03T01:41:02.734Z,86.15
2022-11-03T01:42:02.728Z,86.36
2022-11-03T01:43:02.803Z,86.88
2022-11-03T01:44:02.760Z,86.46
2022-11-03T01:45:02.722Z,86.57
2022-11-03T01:46:02.691Z,86.46
2022-11-03T01:47:02.681Z,86.46
2022-11-03T01:48:02.717Z,86.77
2022-11-03T01:49:02.650Z,86.67
2022-11-03T01:50:03.666Z,87.43
2022-11-03T01:51:02.659Z,87.74
2022-11-03T01:52:02.637Z,88.16
2022-11-03T01:53:02.647Z,88.06
2022-11-03T01:54:02.615Z,88.16
2022-11-03T01:55:02.622Z,88.40
2022-11-03T01:56:02.588Z,87.78
2022-11-03T01:57:02.629Z,87.78
2022-11-03T01:58:02.607Z,87.88
2022-11-03T01:59:02.592Z,87.57
2022-11-03T02:00:02.621Z,88.09
2022-11-03T02:01:02.631Z,88.30
2022-11-03T02:02:02.648Z,87.99
2022-11-03T02:03:02.553Z,88.20
2022-11-03T02:04:02.559Z,88.67
2022-11-03T02:05:02.506Z,88.36
2022-11-03T02:06:02.499Z,88.16
2022-11-03T02:07:02.493Z,88.06
2022-11-03T02:08:02.540Z,88.46
2022-11-03T02:09:02.489Z,88.88
2022-11-03T02:10:02.514Z,89.65
2022-11-03T02:11:02.527Z,89.65
2022-11-03T02:12:02.439Z,89.75
2022-11-03T02:13:02.430Z,89.34
2022-11-03T02:14:02.465Z,90.06
2022-11-03T02:15:02.410Z,90.37
2022-11-03T02:16:02.399Z,89.86
2022-11-03T02:17:02.393Z,89.34
2022-11-03T02:18:02.381Z,90.06
2022-11-03T02:19:02.368Z,89.54
2022-11-03T02:20:02.359Z,89.75
2022-11-03T02:21:02.386Z,89.65
2022-11-03T02:22:02.350Z,89.71
2022-11-03T02:23:02.341Z,88.78
2022-11-03T02:24:02.330Z,88.88
2022-11-03T02:25:02.312Z,88.67
2022-11-03T02:26:02.321Z,88.40
2022-11-03T02:27:02.311Z,88.92
2022-11-03T02:28:02.280Z,88.65
2022-11-03T02:29:34.173Z,89.79
2022-11-03T02:30:02.265Z,90.62
2022-11-03T02:31:02.270Z,90.10
2022-11-03T02:32:02.240Z,89.48
2022-11-03T02:33:02.246Z,90.10
2022-11-03T02:34:02.223Z,90.10
2022-11-03T02:35:02.221Z,90.20
2022-11-03T02:36:02.226Z,90.41
2022-11-03T02:37:02.218Z,90.93
2022-11-03T02:38:02.203Z,91.14
2022-11-03T02:39:02.198Z,90.72
2022-11-03T02:40:02.173Z,90.87
2022-11-03T02:41:02.162Z,91.35
2022-11-03T02:42:02.180Z,90.83
2022-11-03T02:43:02.164Z,90.72
2022-11-03T02:44:02.148Z,90.72
2022-11-03T02:45:02.137Z,90.66
2022-11-03T02:46:02.122Z,91.49
2022-11-03T02:47:02.141Z,91.45
2022-11-03T02:48:02.088Z,91.45
2022-11-03T02:49:02.107Z,91.09
2022-11-03T02:50:02.081Z,90.93
2022-11-03T02:51:02.061Z,90.47
2022-11-03T02:52:02.049Z,90.72
2022-11-03T02:53:02.093Z,90.52
2022-11-03T02:54:02.051Z,91.14
2022-11-03T02:55:02.054Z,90.83
2022-11-03T02:56:02.012Z,90.47
2022-11-03T02:57:02.017Z,90.99
2022-11-03T02:58:02.044Z,90.68
2022-11-03T02:59:01.997Z,90.44
2022-11-03T03:00:01.989Z,90.68
2022-11-03T03:01:02.028Z,90.33
2022-11-03T03:02:02.083Z,89.81
2022-11-03T03:03:01.973Z,89.86
2022-11-03T03:04:01.958Z,90.02
2022-11-03T03:05:01.949Z,90.02
2022-11-03T03:06:01.916Z,90.23
2022-11-03T03:07:01.914Z,90.23
2022-11-03T03:08:01.890Z,90.53
2022-11-03T03:09:01.881Z,91.05
2022-11-03T03:10:01.910Z,90.50
2022-11-03T03:11:01.858Z,90.80
2022-11-03T03:12:01.878Z,90.19
2022-11-03T03:13:01.857Z,89.56
2022-11-03T03:14:01.866Z,90.19
2022-11-03T03:15:01.848Z,89.98
2022-11-03T03:16:01.865Z,90.25
2022-11-03T03:17:01.806Z,89.94
2022-11-03T03:18:01.810Z,89.83
2022-11-03T03:19:01.795Z,89.52
2022-11-03T03:20:01.815Z,89.87
2022-11-03T03:21:01.780Z,89.94
2022-11-03T03:22:01.785Z,89.62
2022-11-03T03:23:05.029Z,89.83
2022-11-03T03:24:01.745Z,89.22
2022-11-03T03:25:01.727Z,89.52
2022-11-03T03:26:01.728Z,90.04
2022-11-03T03:27:01.725Z,89.83
2022-11-03T03:28:01.718Z,89.62
2022-11-03T03:29:01.721Z,89.11
2022-11-03T03:30:01.688Z,89.07
2022-11-03T03:31:01.682Z,89.11
2022-11-03T03:32:01.703Z,88.70
2022-11-03T03:33:01.698Z,88.59
2022-11-03T03:34:04.857Z,88.59
2022-11-03T03:35:02.639Z,88.70
2022-11-03T03:36:01.699Z,88.80
2022-11-03T03:37:01.613Z,89.11
2022-11-03T03:38:01.630Z,88.90
2022-11-03T03:39:01.600Z,88.70
2022-11-03T03:40:01.587Z,88.59
2022-11-03T03:41:03.440Z,88.59
2022-11-03T03:42:01.569Z,88.70
2022-11-03T03:43:01.558Z,89.11
2022-11-03T03:44:01.575Z,88.70
2022-11-03T03:45:01.545Z,88.90
2022-11-03T03:46:01.535Z,88.49
2022-11-03T03:47:01.524Z,89.22
2022-11-03T03:48:01.512Z,88.80
2022-11-03T03:49:01.516Z,89.42
2022-11-03T03:50:01.538Z,89.11
2022-11-03T03:51:01.488Z,90.14
2022-11-03T03:52:01.482Z,90.50
2022-11-03T03:53:01.462Z,89.87
2022-11-03T03:54:01.447Z,90.29
2022-11-03T03:55:01.461Z,89.87
2022-11-03T03:56:01.421Z,90.08
2022-11-03T03:57:01.421Z,90.70
2022-11-03T03:58:01.403Z,90.66
2022-11-03T03:59:01.392Z,90.70
2022-11-03T04:00:01.400Z,90.87
2022-11-03T04:01:01.413Z,90.45
2022-11-03T04:02:01.489Z,90.35
2022-11-03T04:03:01.403Z,90.35
2022-11-03T04:04:01.378Z,90.35
2022-11-03T04:05:02.372Z,90.66
2022-11-03T04:06:01.355Z,89.94
2022-11-03T04:07:01.328Z,89.83
2022-11-03T04:08:01.324Z,90.04
2022-11-03T04:09:01.299Z,90.45
2022-11-03T04:10:01.313Z,90.00
2022-11-03T04:11:01.284Z,89.89
2022-11-03T04:12:01.282Z,90.41
2022-11-03T04:13:01.283Z,89.38
2022-11-03T04:14:01.253Z,89.38
2022-11-03T04:15:01.256Z,89.23
2022-11-03T04:16:01.253Z,89.13
2022-11-03T04:17:01.233Z,89.23
2022-11-03T04:18:01.232Z,89.07
2022-11-03T04:19:01.221Z,88.51
2022-11-03T04:20:01.188Z,88.71
2022-11-03T04:21:01.213Z,88.31
2022-11-03T04:22:01.199Z,88.10
2022-11-03T04:23:01.207Z,88.10
2022-11-03T04:24:01.173Z,88.31
2022-11-03T04:25:01.143Z,88.10
2022-11-03T04:26:01.223Z,88.10
2022-11-03T04:27:01.143Z,87.99
2022-11-03T04:28:01.135Z,88.41
2022-11-03T04:29:01.120Z,87.99
2022-11-03T04:30:01.127Z,87.99
2022-11-03T04:31:01.092Z,88.14
2022-11-03T04:32:01.088Z,87.99
2022-11-03T04:33:01.085Z,88.31
2022-11-03T04:34:01.083Z,87.83
2022-11-03T04:35:01.054Z,88.24
2022-11-03T04:36:01.038Z,87.93
2022-11-03T04:37:01.028Z,88.04
2022-11-03T04:38:01.058Z,88.14
2022-11-03T04:39:01.017Z,87.83
2022-11-03T04:40:01.009Z,87.93
2022-11-03T04:41:00.996Z,87.73
2022-11-03T04:42:01.018Z,88.24
2022-11-03T04:43:01.047Z,88.34
2022-11-03T04:44:00.975Z,88.28
2022-11-03T04:45:00.949Z,88.76
2022-11-03T04:46:00.954Z,88.65
2022-11-03T04:47:00.946Z,88.55
2022-11-03T04:48:00.923Z,88.76
2022-11-03T04:49:00.923Z,88.14
2022-11-03T04:50:00.913Z,88.34
2022-11-03T04:51:00.900Z,88.34
2022-11-03T04:52:00.919Z,88.14
2022-11-03T04:53:00.881Z,88.34
2022-11-03T04:54:00.865Z,88.34
2022-11-03T04:55:00.873Z,88.45
2022-11-03T04:56:06.117Z,88.34
2022-11-03T04:57:02.938Z,88.45
2022-11-03T04:58:00.833Z,87.93
2022-11-03T04:59:00.904Z,87.93
2022-11-03T05:00:00.807Z,88.04
2022-11-03T05:01:00.893Z,88.24
2022-11-03T05:02:00.996Z,88.04
2022-11-03T05:03:00.806Z,88.20
2022-11-03T05:04:00.794Z,88.04
2022-11-03T05:05:00.769Z,87.93
2022-11-03T05:06:00.753Z,87.48
2022-11-03T05:07:00.757Z,87.68
2022-11-03T05:08:00.746Z,87.58
2022-11-03T05:09:00.744Z,87.37
2022-11-03T05:10:00.716Z,87.27
2022-11-03T05:11:00.704Z,87.93
2022-11-03T05:12:00.727Z,87.62
2022-11-03T05:13:00.682Z,87.10
2022-11-03T05:14:00.700Z,87.83
2022-11-03T05:15:00.670Z,87.83
2022-11-03T05:16:00.665Z,88.14
2022-11-03T05:17:00.658Z,88.49
2022-11-03T05:18:00.649Z,87.93
2022-11-03T05:19:00.638Z,88.39
2022-11-03T05:20:00.618Z,88.04
2022-11-03T05:21:00.667Z,88.07
2022-11-03T05:22:00.594Z,88.59
2022-11-03T05:23:00.606Z,88.07
2022-11-03T05:24:00.690Z,88.70
2022-11-03T05:25:00.596Z,88.90
2022-11-03T05:26:00.584Z,88.90
2022-11-03T05:27:00.554Z,89.22
2022-11-03T05:28:00.542Z,89.73
2022-11-03T05:29:00.531Z,89.22
2022-11-03T05:30:01.093Z,89.22
2022-11-03T05:31:00.521Z,90.14
2022-11-03T05:32:00.542Z,89.73
2022-11-03T05:33:00.499Z,89.94
2022-11-03T05:34:00.511Z,89.22
2022-11-03T05:35:00.515Z,89.32
2022-11-03T05:36:00.474Z,89.73
2022-11-03T05:37:00.486Z,90.25
2022-11-03T05:38:00.461Z,89.69
2022-11-03T05:39:00.453Z,89.62
2022-11-03T05:40:00.447Z,89.69
2022-11-03T05:41:00.418Z,89.28
2022-11-03T05:42:00.426Z,89.07
2022-11-03T05:43:00.414Z,88.96
2022-11-03T05:44:00.393Z,89.44
2022-11-03T05:45:00.393Z,88.65
2022-11-03T05:46:00.407Z,88.24
2022-11-03T05:47:03.162Z,88.24
2022-11-03T05:48:01.350Z,88.65
2022-11-03T05:49:00.430Z,88.76
2022-11-03T05:50:00.416Z,88.76
2022-11-03T05:51:00.337Z,89.28
2022-11-03T05:52:00.857Z,89.07
2022-11-03T05:53:00.341Z,88.96
2022-11-03T05:54:00.295Z,88.45
2022-11-03T05:55:00.287Z,88.14
2022-11-03T05:56:00.267Z,88.04
2022-11-03T05:57:00.255Z,88.18
2022-11-03T05:58:00.300Z,88.49
2022-11-03T05:59:00.264Z,88.65
2022-11-03T06:00:00.266Z,88.34
2022-11-03T06:01:00.234Z,88.45
2022-11-03T06:02:00.447Z,88.28
2022-11-03T06:03:00.391Z,88.14
2022-11-03T06:04:00.189Z,88.07
2022-11-03T06:05:00.187Z,88.28
2022-11-03T06:06:00.246Z,88.28
2022-11-03T06:07:00.165Z,88.70
2022-11-03T06:08:00.161Z,88.70
2022-11-03T06:09:00.153Z,88.39
2022-11-03T06:10:00.142Z,88.80
2022-11-03T06:11:00.139Z,88.49
2022-11-03T06:12:00.109Z,88.70
2022-11-03T06:13:00.118Z,88.90
2022-11-03T06:14:00.157Z,88.86
2022-11-03T06:15:00.085Z,88.86
2022-11-03T06:16:00.083Z,88.76
2022-11-03T06:17:00.052Z,88.20
2022-11-03T06:18:00.071Z,88.41
2022-11-03T06:19:00.064Z,88.20
2022-11-03T06:20:00.048Z,87.89
2022-11-03T06:21:00.010Z,87.68
2022-11-03T06:22:00.045Z,87.68
2022-11-03T06:23:00.015Z,87.79
2022-11-03T06:24:00.004Z,88.20
2022-11-03T06:24:59.975Z,87.79
2022-11-03T06:25:59.970Z,87.89
2022-11-03T06:26:59.980Z,87.27
2022-11-03T06:27:59.949Z,87.58
2022-11-03T06:28:59.985Z,87.68
2022-11-03T06:29:59.946Z,87.89
2022-11-03T06:30:59.923Z,87.85
2022-11-03T06:31:59.911Z,87.54
2022-11-03T06:32:59.911Z,87.13
2022-11-03T06:33:59.977Z,86.30
2022-11-03T06:34:59.885Z,86.41
2022-11-03T06:35:59.889Z,86.44
2022-11-03T06:36:59.863Z,86.44
2022-11-03T06:37:59.890Z,86.76
2022-11-03T06:38:59.886Z,87.99
2022-11-03T06:39:59.843Z,88.10
2022-11-03T06:40:59.834Z,87.48
2022-11-03T06:41:59.829Z,87.27
2022-11-03T06:42:59.820Z,87.48
2022-11-03T06:43:59.814Z,87.58
2022-11-03T06:44:59.817Z,87.65
2022-11-03T06:45:59.776Z,87.23
2022-11-03T06:46:59.876Z,86.51
2022-11-03T06:47:59.772Z,86.51
2022-11-03T06:48:59.773Z,86.57
2022-11-03T06:49:59.774Z,86.82
2022-11-03T06:50:59.751Z,86.51
2022-11-03T06:51:59.729Z,86.71
2022-11-03T06:52:59.714Z,86.61
2022-11-03T06:53:59.710Z,86.78
2022-11-03T06:54:59.734Z,86.71
2022-11-03T06:55:59.708Z,86.57
2022-11-03T06:56:59.682Z,86.57
2022-11-03T06:57:59.700Z,85.95
2022-11-03T06:58:59.693Z,85.95
2022-11-03T07:00:19.939Z,86.26
2022-11-03T07:01:03.709Z,86.16
2022-11-03T07:02:00.707Z,86.26
2022-11-03T07:02:59.630Z,85.85
2022-11-03T07:03:59.634Z,85.60
2022-11-03T07:04:59.602Z,85.95
2022-11-03T07:05:59.596Z,85.85
2022-11-03T07:06:59.585Z,85.33
2022-11-03T07:07:59.631Z,85.54
2022-11-03T07:08:59.560Z,85.95
2022-11-03T07:09:59.580Z,86.47
2022-11-03T07:10:59.545Z,86.68
2022-11-03T07:11:59.546Z,86.68
2022-11-03T07:13:03.013Z,86.71
2022-11-03T07:14:00.537Z,86.68
2022-11-03T07:14:59.565Z,86.68
2022-11-03T07:15:59.498Z,86.61
2022-11-03T07:16:59.496Z,86.68
2022-11-03T07:17:59.471Z,86.57
2022-11-03T07:18:59.587Z,86.68
2022-11-03T07:19:59.507Z,86.68
2022-11-03T07:20:59.460Z,86.47
2022-11-03T07:21:59.463Z,86.98
2022-11-03T07:22:59.445Z,86.57
2022-11-03T07:23:59.412Z,86.57
2022-11-03T07:24:59.415Z,86.68
2022-11-03T07:25:59.416Z,86.74
2022-11-03T07:26:59.446Z,86.47
2022-11-03T07:27:59.402Z,86.53
2022-11-03T07:28:59.373Z,86.53
2022-11-03T07:29:59.385Z,86.68
2022-11-03T07:30:59.357Z,86.57
2022-11-03T07:31:59.341Z,86.68
2022-11-03T07:32:59.340Z,86.74
2022-11-03T07:33:59.322Z,86.43
2022-11-03T07:34:59.331Z,86.53
2022-11-03T07:36:16.130Z,86.63
2022-11-03T07:37:01.347Z,86.02
2022-11-03T07:37:59.271Z,86.12
2022-11-03T07:38:59.263Z,86.22
2022-11-03T07:39:59.297Z,85.91
2022-11-03T07:40:59.279Z,85.57
2022-11-03T07:41:59.253Z,85.87
2022-11-03T07:42:59.230Z,85.97
2022-11-03T07:43:59.253Z,86.43
2022-11-03T07:44:59.206Z,85.97
2022-11-03T07:45:59.277Z,86.63
2022-11-03T07:46:59.196Z,86.63
2022-11-03T07:48:01.840Z,86.53
2022-11-03T07:49:01.176Z,86.53
2022-11-03T07:49:59.168Z,86.63
2022-11-03T07:50:59.164Z,86.53
2022-11-03T07:51:59.151Z,86.49
2022-11-03T07:52:59.147Z,86.02
2022-11-03T07:53:59.139Z,86.18
2022-11-03T07:54:59.105Z,86.74
2022-11-03T07:55:59.202Z,86.53
2022-11-03T07:56:59.109Z,86.53
2022-11-03T07:57:59.086Z,86.29
2022-11-03T07:58:59.071Z,86.39
2022-11-03T07:59:59.150Z,86.39
2022-11-03T08:00:59.061Z,86.29
2022-11-03T08:01:59.294Z,86.49
2022-11-03T08:02:59.060Z,86.24
2022-11-03T08:03:59.050Z,86.55
2022-11-03T08:04:59.023Z,84.59
2022-11-03T08:05:58.993Z,84.59
2022-11-03T08:06:59.014Z,84.91
2022-11-03T08:07:58.984Z,84.80
2022-11-03T08:08:59.010Z,84.35
2022-11-03T08:09:58.961Z,84.45
2022-11-03T08:10:59.046Z,84.66
2022-11-03T08:11:58.954Z,84.42
2022-11-03T08:12:58.957Z,84.31
2022-11-03T08:13:58.928Z,84.31
2022-11-03T08:14:58.930Z,84.69
2022-11-03T08:15:58.903Z,84.83
2022-11-03T08:16:58.892Z,84.27
2022-11-03T08:17:58.914Z,83.97
2022-11-03T08:18:58.892Z,83.76
2022-11-03T08:19:58.877Z,83.25
2022-11-03T08:20:59.855Z,83.76
2022-11-03T08:21:58.846Z,83.20
2022-11-03T08:23:23.970Z,83.04
2022-11-03T08:24:00.856Z,83.04
2022-11-03T08:24:58.827Z,82.90
2022-11-03T08:25:58.817Z,83.00
2022-11-03T08:26:58.830Z,83.11
2022-11-03T08:27:58.782Z,82.86
2022-11-03T08:29:13.191Z,82.31
2022-11-03T08:29:58.775Z,82.00
2022-11-03T08:31:01.893Z,82.31
2022-11-03T08:31:59.772Z,82.00
2022-11-03T08:32:58.736Z,81.59
2022-11-03T08:33:58.791Z,81.14
2022-11-03T08:34:58.711Z,80.93
2022-11-03T08:35:58.705Z,79.77
2022-11-03T08:36:58.730Z,79.93
2022-11-03T08:37:58.726Z,79.83
2022-11-03T08:38:58.692Z,79.38
2022-11-03T08:39:58.671Z,78.83
2022-11-03T08:40:58.743Z,78.53
2022-11-03T08:41:58.679Z,78.80
2022-11-03T08:42:58.640Z,78.70
2022-11-03T08:43:58.661Z,77.02
2022-11-03T08:44:58.631Z,76.81
2022-11-03T08:46:06.623Z,77.02
2022-11-03T08:47:00.610Z,76.68
2022-11-03T08:47:58.591Z,75.52
2022-11-03T08:48:58.594Z,76.61
2022-11-03T08:49:58.606Z,75.21
2022-11-03T08:50:58.739Z,75.52
2022-11-03T08:51:58.574Z,75.21
2022-11-03T08:52:58.549Z,74.80
2022-11-03T08:53:58.546Z,74.97
2022-11-03T08:54:58.551Z,74.66
2022-11-03T08:55:58.521Z,74.80
2022-11-03T08:56:58.517Z,75.62
2022-11-03T08:57:58.525Z,74.87
2022-11-03T08:58:58.506Z,75.17
2022-11-03T08:59:58.479Z,75.38
2022-11-03T09:00:58.476Z,74.84
2022-11-03T09:01:58.543Z,75.24
2022-11-03T09:02:58.514Z,76.37
2022-11-03T09:03:58.575Z,74.93
2022-11-03T09:04:58.417Z,75.34
2022-11-03T09:05:58.424Z,75.75
2022-11-03T09:06:58.428Z,75.34
2022-11-03T09:11:00.765Z,74.59
2022-11-03T09:11:58.423Z,74.59
2022-11-03T09:12:58.354Z,75.00
2022-11-03T09:13:58.385Z,75.48
2022-11-03T09:14:58.420Z,74.56
2022-11-03T09:15:58.330Z,75.44
2022-11-03T09:16:58.370Z,75.58
2022-11-03T09:17:58.352Z,75.95
2022-11-03T09:18:58.282Z,76.29
2022-11-03T09:19:58.290Z,75.75
2022-11-03T09:20:58.279Z,75.31
2022-11-03T09:21:58.375Z,74.49
2022-11-03T09:22:58.263Z,75.10
2022-11-03T09:23:58.248Z,74.15
2022-11-03T09:24:58.293Z,74.35
2022-11-03T09:25:58.213Z,73.50
2022-11-03T09:27:02.159Z,74.28
2022-11-03T09:27:59.200Z,73.88
2022-11-03T09:28:58.253Z,74.35
2022-11-03T09:30:12.752Z,74.15
2022-11-03T09:31:00.184Z,72.52
2022-11-03T09:31:58.195Z,73.64
2022-11-03T09:32:58.145Z,74.04
2022-11-03T09:33:58.160Z,72.58
2022-11-03T09:34:58.127Z,73.50
2022-11-03T09:35:58.119Z,72.38
2022-11-03T09:36:58.112Z,73.16
2022-11-03T09:37:58.099Z,73.26
2022-11-03T09:38:58.112Z,72.52
2022-11-03T09:39:58.085Z,71.30
2022-11-03T09:40:58.072Z,71.97
2022-11-03T09:41:59.344Z,72.08
2022-11-03T09:42:59.087Z,71.26
2022-11-03T09:43:58.097Z,72.28
2022-11-03T09:44:58.034Z,71.03
2022-11-03T09:45:58.073Z,70.48
2022-11-03T09:46:58.629Z,70.08
2022-11-03T09:47:58.991Z,70.18
2022-11-03T09:48:58.017Z,70.86
2022-11-03T09:49:57.988Z,70.55
2022-11-03T09:50:57.978Z,70.04
2022-11-03T09:51:57.963Z,69.84
2022-11-03T09:52:58.031Z,70.72
2022-11-03T09:53:57.972Z,68.79
2022-11-03T09:54:57.931Z,68.70
2022-11-03T09:55:57.924Z,69.51
2022-11-03T09:56:57.911Z,68.35
2022-11-03T09:57:57.893Z,68.66
2022-11-03T09:58:57.944Z,67.85
2022-11-03T09:59:57.934Z,67.92
2022-11-03T10:00:57.990Z,67.72
2022-11-03T10:01:58.002Z,66.91
2022-11-03T10:02:57.845Z,66.53
2022-11-03T10:03:58.861Z,67.75
2022-11-03T10:04:57.870Z,68.46
2022-11-03T10:05:57.825Z,67.65
2022-11-03T10:06:57.829Z,67.72
2022-11-03T10:07:57.849Z,67.34
2022-11-03T10:08:57.796Z,67.75
2022-11-03T10:09:57.795Z,67.92
2022-11-03T10:10:57.781Z,68.52
2022-11-03T10:11:57.834Z,66.40
2022-11-03T10:12:57.804Z,67.95
2022-11-03T10:13:57.747Z,68.49
2022-11-03T10:14:57.736Z,69.20
2022-11-03T10:15:57.729Z,69.98
2022-11-03T10:16:57.729Z,70.01
2022-11-03T10:17:57.716Z,70.01
2022-11-03T10:18:57.696Z,69.47
2022-11-03T10:19:57.685Z,68.76
2022-11-03T10:20:57.693Z,67.92
2022-11-03T10:21:57.667Z,68.15
2022-11-03T10:22:57.691Z,68.76
2022-11-03T10:23:57.684Z,67.61
2022-11-03T10:24:57.645Z,68.63
2022-11-03T10:25:57.626Z,67.92
2022-11-03T10:26:57.610Z,67.51
2022-11-03T10:27:57.636Z,67.92
2022-11-03T10:28:57.619Z,67.85
2022-11-03T10:29:58.114Z,68.96
2022-11-03T10:31:11.392Z,67.51
2022-11-03T10:31:59.561Z,68.56
2022-11-03T10:32:57.577Z,68.56
2022-11-03T10:33:57.545Z,68.73
2022-11-03T10:34:57.544Z,67.82
2022-11-03T10:35:57.523Z,67.82
2022-11-03T10:36:57.518Z,68.70
2022-11-03T10:37:57.537Z,66.27
2022-11-03T10:38:57.493Z,67.38
2022-11-03T10:39:57.491Z,67.89
2022-11-03T10:40:57.480Z,67.72
2022-11-03T10:41:57.494Z,67.51
2022-11-03T10:42:57.481Z,67.72
2022-11-03T10:43:57.455Z,67.72
2022-11-03T10:44:57.439Z,68.83
2022-11-03T10:45:57.431Z,68.60
2022-11-03T10:46:57.439Z,68.60
2022-11-03T10:48:00.543Z,67.45
2022-11-03T10:48:58.428Z,67.25
2022-11-03T10:49:57.419Z,67.55
2022-11-03T10:50:57.375Z,66.30
2022-11-03T10:51:57.388Z,66.94
2022-11-03T10:52:57.373Z,66.81
2022-11-03T10:53:57.355Z,67.01
2022-11-03T10:54:57.359Z,66.20
2022-11-03T10:55:57.341Z,67.52
2022-11-03T10:56:57.323Z,67.01
2022-11-03T10:57:57.315Z,67.48
2022-11-03T10:59:57.317Z,67.31
2022-11-03T11:00:57.342Z,67.92
2022-11-03T11:01:57.373Z,68.76
2022-11-03T11:02:57.267Z,68.76
2022-11-03T11:03:57.294Z,68.35
2022-11-03T11:04:57.273Z,68.46
2022-11-03T11:05:57.248Z,69.84
2022-11-03T11:06:57.230Z,69.74
2022-11-03T11:07:57.243Z,68.60
2022-11-03T11:08:59.921Z,67.58
2022-11-03T11:09:57.211Z,67.72
2022-11-03T11:10:57.243Z,67.28
2022-11-03T11:11:57.176Z,67.68
2022-11-03T11:12:57.207Z,67.89
2022-11-03T11:13:57.244Z,67.79
2022-11-03T11:14:57.153Z,68.36
2022-11-03T11:15:57.147Z,68.36
2022-11-03T11:16:57.125Z,67.55
2022-11-03T11:17:57.176Z,67.22
2022-11-03T11:18:57.136Z,67.25
2022-11-03T11:19:57.102Z,67.32
2022-11-03T11:20:57.088Z,67.25
2022-11-03T11:21:57.072Z,66.24
2022-11-03T11:22:57.068Z,67.32
2022-11-03T11:23:57.070Z,66.54
2022-11-03T11:24:57.046Z,67.68
2022-11-03T11:25:57.055Z,67.55
2022-11-03T11:26:57.055Z,67.79
2022-11-03T11:27:58.267Z,68.46
2022-11-03T11:28:58.024Z,67.68
2022-11-03T11:29:56.992Z,68.70
2022-11-03T11:30:57.990Z,68.36
2022-11-03T11:31:56.974Z,67.35
2022-11-03T11:32:56.974Z,67.55
2022-11-03T11:33:56.976Z,67.76
2022-11-03T11:34:56.971Z,68.77
2022-11-03T11:35:59.199Z,67.55
2022-11-03T11:36:57.931Z,68.36
2022-11-03T11:37:56.920Z,68.66
2022-11-03T11:38:56.951Z,68.36
2022-11-03T11:39:56.913Z,68.87
2022-11-03T11:40:56.938Z,68.66
2022-11-03T11:41:56.902Z,68.63
2022-11-03T11:42:56.886Z,67.52
2022-11-03T11:43:56.868Z,67.62
2022-11-03T11:44:56.858Z,67.52
2022-11-03T11:45:56.911Z,67.32
2022-11-03T11:46:56.830Z,67.72
2022-11-03T11:47:56.816Z,67.72
2022-11-03T11:48:56.873Z,67.11
2022-11-03T11:49:56.806Z,67.72
2022-11-03T11:50:56.861Z,68.46
2022-11-03T11:51:56.779Z,67.76
2022-11-03T11:52:56.777Z,68.40
2022-11-03T11:54:16.458Z,68.29
2022-11-03T11:54:56.749Z,68.77
2022-11-03T11:55:56.737Z,68.66
2022-11-03T11:56:56.731Z,68.63
2022-11-03T11:57:56.733Z,68.36
2022-11-03T11:58:56.724Z,68.77
2022-11-03T11:59:56.696Z,68.46
2022-11-03T12:00:56.690Z,68.26
2022-11-03T12:01:56.893Z,67.85
2022-11-03T12:02:56.669Z,68.97
2022-11-03T12:03:56.881Z,68.36
2022-11-03T12:04:56.683Z,68.77
2022-11-03T12:05:56.662Z,68.87
2022-11-03T12:06:56.682Z,68.46
2022-11-03T12:07:56.693Z,68.66
2022-11-03T12:08:56.625Z,68.60
2022-11-03T12:09:56.600Z,68.70
2022-11-03T12:10:56.688Z,68.90
2022-11-03T12:11:57.699Z,68.87
2022-11-03T12:12:56.705Z,69.71
2022-11-03T12:13:56.562Z,68.80
2022-11-03T12:14:56.548Z,68.60
2022-11-03T12:15:56.534Z,68.49
2022-11-03T12:16:57.623Z,68.70
2022-11-03T12:17:56.549Z,69.03
2022-11-03T12:18:56.526Z,69.10
2022-11-03T12:19:56.538Z,69.31
2022-11-03T12:20:56.561Z,68.29
2022-11-03T12:21:56.505Z,68.36
2022-11-03T12:22:56.467Z,68.36
2022-11-03T12:23:56.458Z,69.27
2022-11-03T12:24:56.482Z,68.36
2022-11-03T12:25:56.440Z,68.36
2022-11-03T12:26:56.430Z,68.46
2022-11-03T12:27:56.436Z,67.68
2022-11-03T12:28:56.464Z,67.68
2022-11-03T12:29:56.395Z,68.40
2022-11-03T12:30:56.415Z,68.29
2022-11-03T12:31:56.390Z,68.70
2022-11-03T12:32:56.377Z,69.44
2022-11-03T12:33:56.393Z,68.90
2022-11-03T12:34:56.353Z,69.10
2022-11-03T12:35:56.347Z,68.70
2022-11-03T12:36:56.610Z,68.90
2022-11-03T12:37:57.320Z,69.10
2022-11-03T12:38:56.322Z,68.70
2022-11-03T12:39:56.327Z,68.83
2022-11-03T12:40:56.306Z,68.52
2022-11-03T12:41:57.279Z,68.80
2022-11-03T12:42:56.269Z,69.51
2022-11-03T12:43:56.313Z,69.51
2022-11-03T12:44:56.262Z,69.61
2022-11-03T12:45:56.308Z,69.31
2022-11-03T12:46:56.274Z,69.61
2022-11-03T12:47:56.213Z,69.41
2022-11-03T12:48:56.196Z,69.71
2022-11-03T12:49:56.256Z,69.51
2022-11-03T12:50:56.277Z,69.92
2022-11-03T12:51:56.200Z,69.92
2022-11-03T12:52:56.189Z,69.81
2022-11-03T12:53:56.162Z,69.81
2022-11-03T12:54:56.149Z,70.08
2022-11-03T12:55:56.147Z,69.61
2022-11-03T12:56:56.134Z,69.71